createdAt,value
2023-02-11T00:02:47.813Z,-4.57
2023-02-11T00:06:01.239Z,-4.60
2023-02-11T00:09:13.565Z,-4.66
2023-02-11T00:12:26.223Z,-4.73
2023-02-11T00:15:38.598Z,-4.74
2023-02-11T00:18:53.111Z,-4.75
2023-02-11T00:22:05.678Z,-4.77
2023-02-11T00:25:18.284Z,-4.84
2023-02-11T00:28:30.728Z,-4.73
2023-02-11T00:31:43.528Z,-4.72
2023-02-11T00:34:55.962Z,-4.84
2023-02-11T00:38:08.608Z,-4.91
2023-02-11T00:41:21.155Z,-4.81
2023-02-11T00:44:33.773Z,-4.79
2023-02-11T00:47:46.171Z,-4.80
2023-02-11T00:50:58.805Z,-4.85
2023-02-11T00:54:11.186Z,-4.80
2023-02-11T00:57:24.584Z,-4.52
2023-02-11T01:00:36.958Z,-4.54
2023-02-11T01:03:49.602Z,-4.56
2023-02-11T01:07:02.024Z,-4.72
2023-02-11T01:10:14.629Z,-4.77
2023-02-11T01:13:27.119Z,-4.87
2023-02-11T01:16:40.371Z,-5.03
2023-02-11T01:19:52.711Z,-5.05
2023-02-11T01:23:06.453Z,-5.07
2023-02-11T01:26:18.766Z,-5.10
2023-02-11T01:29:31.397Z,-5.01
2023-02-11T01:32:43.756Z,-5.12
2023-02-11T01:35:59.353Z,-5.18
2023-02-11T01:39:13.411Z,-5.19
2023-02-11T01:42:25.905Z,-5.22
2023-02-11T01:45:43.152Z,-5.33
2023-02-11T01:49:08.008Z,-5.17
2023-02-11T01:52:22.428Z,-5.12
2023-02-11T01:55:53.752Z,-5.17
2023-02-11T01:59:12.089Z,-5.19
2023-02-11T02:02:30.978Z,-5.30
2023-02-11T02:06:00.018Z,-5.41
2023-02-11T02:09:19.837Z,-5.28
2023-02-11T02:12:32.527Z,-5.20
2023-02-11T02:15:54.093Z,-5.35
2023-02-11T02:19:25.216Z,-5.46
2023-02-11T02:23:12.997Z,-5.41
2023-02-11T02:26:44.409Z,-5.42
2023-02-11T02:30:14.843Z,-5.28
2023-02-11T02:33:37.949Z,-5.29
2023-02-11T02:37:04.999Z,-5.21
2023-02-11T02:40:24.008Z,-5.27
2023-02-11T02:43:40.091Z,-5.26
2023-02-11T02:46:52.745Z,-5.09
2023-02-11T02:50:06.172Z,-5.22
2023-02-11T02:53:26.647Z,-5.20
2023-02-11T02:56:46.362Z,-5.37
2023-02-11T03:00:17.718Z,-5.25
2023-02-11T03:03:54.466Z,-5.42
2023-02-11T03:07:52.184Z,-5.36
2023-02-11T03:11:04.543Z,-5.39
2023-02-11T03:14:17.740Z,-5.44
2023-02-11T03:17:30.035Z,-5.58
2023-02-11T03:20:43.565Z,-5.64
2023-02-11T03:23:57.800Z,-5.42
2023-02-11T03:27:21.000Z,-5.50
2023-02-11T03:30:37.120Z,-5.45
2023-02-11T03:34:10.061Z,-5.21
2023-02-11T03:38:02.345Z,-5.23
2023-02-11T03:41:15.048Z,-5.47
2023-02-11T03:44:30.865Z,-5.55
2023-02-11T03:47:47.193Z,-5.57
2023-02-11T03:51:00.188Z,-5.69
2023-02-11T03:54:14.964Z,-5.78
2023-02-11T03:57:28.991Z,-5.87
2023-02-11T04:00:42.247Z,-5.65
2023-02-11T04:03:54.828Z,-5.55
2023-02-11T04:07:07.206Z,-5.56
2023-02-11T04:10:19.896Z,-5.50
2023-02-11T04:13:32.863Z,-5.41
2023-02-11T04:16:45.483Z,-5.53
2023-02-11T04:19:57.833Z,-5.52
2023-02-11T04:23:10.438Z,-5.52
2023-02-11T04:26:22.768Z,-5.48
2023-02-11T04:29:35.431Z,-5.47
2023-02-11T04:32:47.827Z,-5.55
2023-02-11T04:36:00.454Z,-5.56
2023-02-11T04:39:12.810Z,-5.61
2023-02-11T04:42:25.473Z,-5.62
2023-02-11T04:45:37.869Z,-5.60
2023-02-11T04:48:50.515Z,-5.63
2023-02-11T04:52:02.841Z,-5.61
2023-02-11T04:55:15.519Z,-5.79
2023-02-11T04:58:27.832Z,-5.92
2023-02-11T05:01:40.669Z,-5.99
2023-02-11T05:04:53.067Z,-6.08
2023-02-11T05:08:05.685Z,-6.12
2023-02-11T05:11:19.902Z,-5.89
2023-02-11T05:14:33.350Z,-5.95
2023-02-11T05:17:45.825Z,-5.94
2023-02-11T05:20:58.415Z,-5.88
2023-02-11T05:24:10.744Z,-6.05
2023-02-11T05:27:24.949Z,-6.00
2023-02-11T05:30:37.326Z,-6.08
2023-02-11T05:33:50.046Z,-6.14
2023-02-11T05:37:02.439Z,-5.90
2023-02-11T05:40:15.136Z,-5.94
2023-02-11T05:43:27.570Z,-5.95
2023-02-11T05:46:40.324Z,-5.93
2023-02-11T05:49:53.710Z,-6.03
2023-02-11T05:53:06.848Z,-6.07
2023-02-11T05:56:19.436Z,-5.67
2023-02-11T05:59:32.096Z,-5.77
2023-02-11T06:02:44.527Z,-5.87
2023-02-11T06:05:57.223Z,-5.82
2023-02-11T06:09:10.448Z,-5.50
2023-02-11T06:12:23.064Z,-5.70
2023-02-11T06:15:35.407Z,-5.79
2023-02-11T06:18:48.180Z,-5.60
2023-02-11T06:22:00.552Z,-5.69
2023-02-11T06:25:13.329Z,-5.60
2023-02-11T06:28:25.679Z,-5.40
2023-02-11T06:31:39.100Z,-5.25
2023-02-11T06:34:51.595Z,-5.53
2023-02-11T06:38:04.260Z,-5.34
2023-02-11T06:41:17.624Z,-5.27
2023-02-11T06:44:30.240Z,-5.08
2023-02-11T06:47:42.686Z,-5.06
2023-02-11T06:50:55.303Z,-4.64
2023-02-11T06:54:07.721Z,-4.66
2023-02-11T06:57:20.311Z,-4.50
2023-02-11T07:00:32.642Z,-4.42
2023-02-11T07:03:45.734Z,-4.15
2023-02-11T07:06:58.066Z,-3.98
2023-02-11T07:10:10.809Z,-3.86
2023-02-11T07:13:23.187Z,-3.67
2023-02-11T07:16:36.026Z,-3.64
2023-02-11T07:19:48.376Z,-3.51
2023-02-11T07:23:01.085Z,-3.69
2023-02-11T07:26:14.905Z,-3.91
2023-02-11T07:29:27.561Z,-3.56
2023-02-11T07:32:39.952Z,-3.70
2023-02-11T07:35:52.868Z,-3.23
2023-02-11T07:39:05.390Z,-3.27
2023-02-11T07:42:18.042Z,-3.30
2023-02-11T07:45:30.475Z,-2.92
2023-02-11T07:48:43.084Z,-2.50
2023-02-11T07:51:56.755Z,-2.65
2023-02-11T07:55:10.133Z,-2.53
2023-02-11T07:58:22.808Z,-2.36
2023-02-11T08:01:35.396Z,-2.17
2023-02-11T08:04:48.010Z,-1.70
2023-02-11T08:08:00.379Z,-1.62
2023-02-11T08:11:14.900Z,-1.62
2023-02-11T08:14:28.587Z,-1.37
2023-02-11T08:17:41.258Z,-1.03
2023-02-11T08:20:53.706Z,-0.42
2023-02-11T08:24:06.762Z,-0.48
2023-02-11T08:27:19.047Z,-0.41
2023-02-11T08:30:31.716Z,-0.09
2023-02-11T08:33:44.246Z,-0.02
2023-02-11T08:36:56.941Z,0.11
2023-02-11T08:40:09.575Z,0.49
2023-02-11T08:43:23.301Z,0.68
2023-02-11T08:46:35.636Z,0.88
2023-02-11T08:49:48.232Z,0.75
2023-02-11T08:53:00.602Z,1.18
2023-02-11T08:56:13.912Z,0.75
2023-02-11T08:59:26.252Z,0.85
2023-02-11T09:02:38.981Z,1.08
2023-02-11T09:05:53.332Z,0.73
2023-02-11T09:09:06.040Z,0.79
2023-02-11T09:12:18.369Z,0.46
2023-02-11T09:15:31.002Z,0.35
2023-02-11T09:18:44.469Z,0.90
2023-02-11T09:21:57.211Z,1.35
2023-02-11T09:25:09.645Z,1.13
2023-02-11T09:28:23.599Z,1.65
2023-02-11T09:31:36.256Z,1.37
2023-02-11T09:34:48.890Z,1.25
2023-02-11T09:38:01.310Z,1.58
2023-02-11T09:41:22.883Z,1.58
2023-02-11T09:44:36.162Z,1.77
2023-02-11T09:47:58.348Z,1.90
2023-02-11T09:51:36.653Z,2.54
2023-02-11T09:54:57.906Z,2.13
2023-02-11T09:58:14.792Z,1.95
2023-02-11T10:01:36.116Z,2.29
2023-02-11T10:05:21.901Z,2.30
2023-02-11T10:09:07.955Z,2.76
2023-02-11T10:12:35.820Z,3.07
2023-02-11T10:15:50.402Z,3.67
2023-02-11T10:19:07.426Z,3.30
2023-02-11T10:22:25.909Z,3.62
2023-02-11T10:25:40.342Z,3.93
2023-02-11T10:28:53.343Z,4.21
2023-02-11T10:32:30.311Z,3.71
2023-02-11T10:35:43.953Z,3.91
2023-02-11T10:39:02.259Z,3.79
2023-02-11T10:42:16.513Z,3.75
2023-02-11T10:45:50.056Z,3.53
2023-02-11T10:49:03.475Z,3.69
2023-02-11T10:52:25.047Z,3.85
2023-02-11T10:55:37.362Z,3.74
2023-02-11T10:59:00.801Z,4.08
2023-02-11T11:02:22.161Z,3.87
2023-02-11T11:05:46.060Z,3.75
2023-02-11T11:08:58.400Z,3.78
2023-02-11T11:12:25.983Z,4.12
2023-02-11T11:15:38.353Z,3.98
2023-02-11T11:18:53.388Z,3.77
2023-02-11T11:22:05.743Z,4.11
2023-02-11T11:25:29.354Z,4.38
2023-02-11T11:29:09.215Z,4.28
2023-02-11T11:32:34.355Z,4.03
2023-02-11T11:35:59.176Z,4.46
2023-02-11T11:39:23.194Z,4.42
2023-02-11T11:42:40.524Z,4.89
2023-02-11T11:45:57.677Z,4.86
2023-02-11T11:50:10.429Z,4.46
2023-02-11T11:53:31.800Z,4.81
2023-02-11T11:56:56.620Z,5.01
2023-02-11T12:00:36.067Z,4.71
2023-02-11T12:04:21.856Z,4.72
2023-02-11T12:07:46.017Z,4.66
2023-02-11T12:11:24.021Z,4.53
2023-02-11T12:14:52.472Z,4.74
2023-02-11T12:18:13.673Z,4.27
2023-02-11T12:21:30.547Z,4.41
2023-02-11T12:24:55.357Z,4.58
2023-02-11T12:28:23.165Z,4.64
2023-02-11T12:31:50.931Z,4.80
2023-02-11T12:35:26.486Z,5.29
2023-02-11T12:38:43.241Z,5.41
2023-02-11T12:42:24.475Z,5.55
2023-02-11T12:46:08.071Z,5.75
2023-02-11T12:49:45.678Z,5.81
2023-02-11T12:53:21.689Z,6.25
2023-02-11T12:56:53.788Z,6.33
2023-02-11T13:00:31.489Z,6.34
2023-02-11T13:03:47.216Z,6.35
2023-02-11T13:07:02.662Z,6.39
2023-02-11T13:10:15.658Z,6.60
2023-02-11T13:14:09.560Z,6.41
2023-02-11T13:17:32.936Z,6.35
2023-02-11T13:21:19.429Z,6.46
2023-02-11T13:24:48.061Z,6.69
2023-02-11T13:28:09.663Z,7.10
2023-02-11T13:31:26.706Z,7.02
2023-02-11T13:34:39.141Z,6.92
2023-02-11T13:37:51.358Z,7.23
2023-02-11T13:41:04.830Z,7.25
2023-02-11T13:44:24.993Z,7.09
2023-02-11T13:47:43.547Z,7.08
2023-02-11T13:51:15.769Z,6.92
2023-02-11T13:54:38.390Z,6.76
2023-02-11T13:58:13.954Z,6.67
2023-02-11T14:01:44.736Z,6.88
2023-02-11T14:05:22.192Z,7.46
2023-02-11T14:08:53.235Z,7.61
2023-02-11T14:12:24.684Z,7.85
2023-02-11T14:15:40.521Z,7.68
2023-02-11T14:18:56.064Z,7.59
2023-02-11T14:22:08.259Z,7.47
2023-02-11T14:25:23.335Z,7.53
2023-02-11T14:28:36.136Z,7.37
2023-02-11T14:32:17.971Z,7.79
2023-02-11T14:35:33.258Z,7.51
2023-02-11T14:38:45.761Z,7.79
2023-02-11T14:41:58.121Z,7.46
2023-02-11T14:45:12.105Z,7.82
2023-02-11T14:48:30.023Z,7.39
2023-02-11T14:51:42.670Z,7.41
2023-02-11T14:55:27.492Z,7.51
2023-02-11T14:58:40.329Z,7.46
2023-02-11T15:01:54.710Z,7.01
2023-02-11T15:05:20.266Z,6.79
2023-02-11T15:08:38.265Z,6.63
2023-02-11T15:11:51.068Z,6.80
2023-02-11T15:15:03.486Z,6.58
2023-02-11T15:18:22.804Z,6.68
2023-02-11T15:21:35.570Z,6.77
2023-02-11T15:25:16.223Z,7.16
2023-02-11T15:28:30.360Z,7.01
2023-02-11T15:31:43.578Z,6.85
2023-02-11T15:34:58.185Z,6.75
2023-02-11T15:38:14.296Z,6.74
2023-02-11T15:41:37.472Z,6.69
2023-02-11T15:44:56.617Z,6.51
2023-02-11T15:48:16.677Z,6.30
2023-02-11T15:51:31.469Z,6.09
2023-02-11T15:54:46.015Z,6.18
2023-02-11T15:58:00.526Z,6.30
2023-02-11T16:01:12.915Z,6.04
2023-02-11T16:04:26.410Z,5.71
2023-02-11T16:07:46.404Z,5.71
2023-02-11T16:10:59.141Z,5.68
2023-02-11T16:14:34.335Z,5.64
2023-02-11T16:17:46.960Z,5.56
2023-02-11T16:20:59.595Z,5.58
2023-02-11T16:24:21.587Z,5.46
2023-02-11T16:27:39.573Z,5.38
2023-02-11T16:30:53.928Z,5.38
2023-02-11T16:34:19.640Z,5.31
2023-02-11T16:37:32.602Z,5.26
2023-02-11T16:40:49.080Z,5.05
2023-02-11T16:44:01.895Z,4.92
2023-02-11T16:47:20.959Z,4.83
2023-02-11T16:50:33.617Z,4.94
2023-02-11T16:53:46.014Z,4.76
2023-02-11T16:56:58.767Z,4.72
2023-02-11T17:00:11.691Z,4.41
2023-02-11T17:03:26.148Z,4.36
2023-02-11T17:06:39.260Z,4.30
2023-02-11T17:09:52.255Z,4.01
2023-02-11T17:13:05.147Z,3.82
2023-02-11T17:16:19.863Z,3.76
2023-02-11T17:19:32.289Z,3.63
2023-02-11T17:22:44.920Z,3.65
2023-02-11T17:25:57.345Z,3.68
2023-02-11T17:29:12.128Z,3.71
2023-02-11T17:32:24.489Z,3.69
2023-02-11T17:35:39.491Z,3.66
2023-02-11T17:38:52.189Z,3.70
2023-02-11T17:42:06.068Z,3.75
2023-02-11T17:45:21.108Z,3.68
2023-02-11T17:48:34.784Z,3.62
2023-02-11T17:51:47.139Z,3.80
2023-02-11T17:54:59.787Z,3.81
2023-02-11T17:58:12.097Z,3.64
2023-02-11T18:01:27.597Z,3.60
2023-02-11T18:04:40.513Z,3.56
2023-02-11T18:07:52.972Z,3.52
2023-02-11T18:11:10.656Z,3.58
2023-02-11T18:14:22.868Z,3.47
2023-02-11T18:17:35.365Z,3.64
2023-02-11T18:21:09.019Z,3.73
2023-02-11T18:24:21.938Z,3.64
2023-02-11T18:27:34.258Z,3.66
2023-02-11T18:30:46.960Z,3.79
2023-02-11T18:33:59.297Z,3.65
2023-02-11T18:37:13.359Z,3.61
2023-02-11T18:40:26.804Z,3.63
2023-02-11T18:43:40.187Z,3.65
2023-02-11T18:46:52.902Z,3.67
2023-02-11T18:50:06.455Z,3.60
2023-02-11T18:53:18.809Z,3.58
2023-02-11T18:56:31.497Z,3.61
2023-02-11T18:59:44.305Z,3.58
2023-02-11T19:02:58.115Z,3.66
2023-02-11T19:06:17.472Z,3.65
2023-02-11T19:09:30.334Z,3.62
2023-02-11T19:12:42.725Z,3.67
2023-02-11T19:15:55.370Z,3.59
2023-02-11T19:19:07.848Z,3.66
2023-02-11T19:22:20.503Z,3.61
2023-02-11T19:25:32.858Z,3.77
2023-02-11T19:28:45.585Z,3.75
2023-02-11T19:31:58.022Z,3.68
2023-02-11T19:35:10.732Z,3.67
2023-02-11T19:38:23.076Z,3.65
2023-02-11T19:41:35.957Z,3.72
2023-02-11T19:44:48.303Z,3.71
2023-02-11T19:48:00.898Z,3.82
2023-02-11T19:51:13.524Z,3.78
2023-02-11T19:54:26.596Z,3.70
2023-02-11T19:57:38.957Z,3.66
2023-02-11T20:00:51.588Z,3.59
2023-02-11T20:04:04.250Z,3.67
2023-02-11T20:07:16.638Z,3.68
2023-02-11T20:10:29.277Z,3.61
2023-02-11T20:13:41.703Z,3.46
2023-02-11T20:16:54.373Z,3.40
2023-02-11T20:20:07.037Z,3.38
2023-02-11T20:23:19.694Z,3.43
2023-02-11T20:26:33.013Z,3.48
2023-02-11T20:29:45.624Z,3.51
2023-02-11T20:32:58.536Z,3.65
2023-02-11T20:36:14.106Z,3.63
2023-02-11T20:39:26.879Z,3.65
2023-02-11T20:42:40.316Z,3.68
2023-02-11T20:45:52.937Z,3.68
2023-02-11T20:49:06.086Z,3.62
2023-02-11T20:52:18.478Z,3.56
2023-02-11T20:55:31.289Z,3.58
2023-02-11T20:58:43.632Z,3.74
2023-02-11T21:01:56.733Z,3.97
2023-02-11T21:05:09.151Z,4.24
2023-02-11T21:08:21.802Z,4.36
2023-02-11T21:11:34.367Z,4.46
2023-02-11T21:14:47.017Z,4.48
2023-02-11T21:17:59.377Z,4.43
2023-02-11T21:21:12.735Z,4.38
2023-02-11T21:24:25.098Z,4.38
2023-02-11T21:27:37.813Z,4.40
2023-02-11T21:30:50.943Z,4.37
2023-02-11T21:34:04.101Z,4.36
2023-02-11T21:37:16.433Z,4.39
2023-02-11T21:40:29.670Z,4.41
2023-02-11T21:43:41.977Z,4.48
2023-02-11T21:46:54.690Z,4.46
2023-02-11T21:50:07.452Z,4.49
2023-02-11T21:53:20.069Z,4.53
2023-02-11T21:56:33.539Z,4.61
2023-02-11T21:59:46.137Z,4.75
2023-02-11T22:02:58.545Z,4.79
2023-02-11T22:06:17.198Z,4.78
2023-02-11T22:09:29.670Z,4.76
2023-02-11T22:12:42.249Z,4.75
2023-02-11T22:15:59.287Z,4.65
2023-02-11T22:19:11.762Z,4.53
2023-02-11T22:22:24.098Z,4.45
2023-02-11T22:25:36.778Z,4.36
2023-02-11T22:28:49.533Z,4.26
2023-02-11T22:32:02.196Z,4.19
2023-02-11T22:35:14.653Z,4.26
2023-02-11T22:38:31.219Z,4.18
2023-02-11T22:41:44.199Z,4.10
2023-02-11T22:44:56.819Z,4.02
2023-02-11T22:48:09.146Z,4.03
2023-02-11T22:51:23.297Z,3.94
2023-02-11T22:54:36.344Z,3.93
2023-02-11T22:57:48.929Z,3.93
2023-02-11T23:01:01.287Z,3.99
2023-02-11T23:04:14.711Z,4.08
2023-02-11T23:07:27.052Z,4.05
2023-02-11T23:10:39.957Z,4.05
2023-02-11T23:13:52.429Z,3.97
2023-02-11T23:17:05.039Z,3.99
2023-02-11T23:20:17.485Z,3.96
2023-02-11T23:23:30.124Z,4.05
2023-02-11T23:26:42.864Z,4.03
2023-02-11T23:29:56.430Z,3.96
2023-02-11T23:33:09.229Z,3.99
2023-02-11T23:36:22.725Z,4.02
2023-02-11T23:39:35.133Z,4.00
2023-02-11T23:42:47.817Z,3.98
2023-02-11T23:46:00.255Z,4.01
2023-02-11T23:49:13.082Z,3.93
2023-02-11T23:52:25.569Z,3.91
2023-02-11T23:55:44.687Z,3.81
2023-02-11T23:58:58.242Z,3.72
